Down Up Stop Top

TXC259
There are no active watches, warnings or advisories

Record high temperature 126.3°F Record low temperature 13.3°F Record high gust 49.5 mph Record high average 32.4 mph Record daily rain 4.23 in. Record low windchill 4.3°F Record high barometer 30.637 in. Record low barometer 28.496 in.
Daily high pressure 30.017 in. Daily low pressure 30.017 in. Daily low windchill 75.4°F Daily high heat index 75.4°F Daily high gust speed 6.2 mph SE Daily high average speed 4.9 mph ESE
Welfare-Texas Weather
LAST READING AT TIME: 03:05 DATE: September 21 2014, time of next update: 03:10
Current WeatherNight time/Dry Current Temperature 75.4°F (24.1°C) (Heat Index 75.4°F ), Apparent temp 74.8°F
Maximum Temperature (since midnight)75.4°F at: 00:00 Minimum Temperature (since midnight)75.4°F at: 00:00
Average windspeed (ten minute)0.0 mph Wind Direction (ten minute)ESE (112°)
Heat Index 75.4°F Maximum Gust (last hour)2.2 mph at: 02:43
Maximum Gust (since midnight)6.2 mph at: 00:11 Maximum 1 minute average (since midnight)4.9 mph at: 00:12
Rainfall (last hour)0.00 in. (0.0 mm) Rainfall (since midnight)0.00 in. (0.0 mm) ---
Rainfall This month 0.00 in. (0.0 mm) Rainfall To date this year 4.57 in. (116.0 mm)
Maximum rain per minute (last hour)0.00 in/min Maximum rain per hour (last 6 hours)0.00 in/hour
Yesterdays rainfall 0.00 in DewPoint 36.1°F (Wet Bulb :56.5°F )
Humidity 24 %, Humidex 72.6°F Barometer corrected to msl30.017 in. (1016.5 hPa)
Pressure change 0.00 in. (last hour) Trend (last hour)STEADY
Pressure change (last 12 hours)+0.06 in Pressure change (last 6 hours)+0.03 in

This page is updated from recent data collected by a WMR200 weather station Use the Reload or Refresh facility on your browser to retrieve the latest data.


Click here for the last 24 hour graph
Click here for the last 48 hour graph
Click here for the last 72 hour graph
Click here for the month to date graph


Weather report/warning/Metars

SAN ANTONIO INTERNATIONAL  AIRPORT , TX, United States (KSAT) 29-32N 098-28W 243M
Sep 21, 2014 - 02:51 AM EDT / 2014.09.21 0651 UTC
Wind: Calm:0
Visibility: 10 mile(s):0
Sky conditions: mostly cloudy
Temperature: 77.0 F (25.0 C)
Dew Point: 71.1 F (21.7 C)
Relative Humidity: 81%
Pressure (altimeter): 30 in. Hg (1015 hPa)
ob: KSAT 210651Z 00000KT 10SM SCT055 BKN250 25/22 A3000 RMK AO2 SLP138 T02500217
cycle: 7
NEW BRAUNFELS MUNICIPAL AIRPORT, TX, United States (KBAZ) 29-43N 98-03W 195M
Sep 21, 2014 - 02:51 AM EDT / 2014.09.21 0651 UTC
Wind: from the N (350 degrees) at 3 MPH (3 KT):0
Visibility: 10 mile(s):0
Sky conditions: mostly clear
Temperature: 73.9 F (23.3 C)
Dew Point: 72.0 F (22.2 C)
Relative Humidity: 93%
Pressure (altimeter): 29.98 in. Hg (1015 hPa)
ob: KBAZ 210651Z AUTO 35003KT 10SM FEW065 23/22 A2998 RMK AO2 SLP145 T02330222
cycle: 7
Kerrville, Kerrville Municipal Airport/Louis Schreiner Field, TX, United States (KERV) 29-58N 099-05W
Sep 21, 2014 - 03:35 AM EDT / 2014.09.21 0735 UTC
Wind: from the SE (130 degrees) at 3 MPH (3 KT):0
Visibility: 10 mile(s):0
Sky conditions: mostly cloudy
Temperature: 72.7 F (22.6 C)
Dew Point: 69.3 F (20.7 C)
Relative Humidity: 89%
Pressure (altimeter): 30.05 in. Hg (1017 hPa)
ob: KERV 210735Z AUTO 13003KT 10SM SCT038 BKN048 23/21 A3005 RMK AO2 T02260207
cycle: 7
BANGOR INT'L AIRPORT, ME, United States (KBGR) 44-48N 068-49W 57M
Sep 21, 2014 - 02:53 AM EDT / 2014.09.21 0653 UTC
Wind: from the S (180 degrees) at 12 MPH (10 KT):0
Visibility: 10 mile(s):0
Sky conditions: partly cloudy
Temperature: 57.9 F (14.4 C)
Dew Point: 53.1 F (11.7 C)
Relative Humidity: 83%
Pressure (altimeter): 30 in. Hg (1015 hPa)
ob: KBGR 210653Z 18010KT 10SM SCT070 14/12 A3000 RMK AO2 SLP159 T01440117
cycle: 7



The data is logged at two minute intervals, but there is data recorded every minute.

Use the RELOAD facility on your browser to retrieve the latest data.

Click here for a daily update of the averages/extremes to date for the month


Created by "Weather Display" software version 10.37R Build 23 at this start time/date 06:34 6/14/2014